Flight Track Log - Related Links

Times and Time Zones

All times are in EDT time to prevent confusion due to time zone crossing. See the N273SK flight status page for this flight to view local times or setup timezone preferences in your user account.


Time Position Orientation Groundspeed Altitude Reporting Facility
EDT Latitude Longitude Course Direction KTS MPH feet Rate Location/Type
Mon 10:59:15 AM 45.4500 -73.8167 245° Southwest 180 207 1,700  Level Montreal Center
Mon 11:00:15 AM 45.4500 -73.8833 270° West 220 253 3,700 2,100 Climbing Montreal Center
Mon 11:01:00 AM 45.5951 -74.1187 295° West  Level FlightAware Approximate
Mon 11:01:15 AM 45.4500 -73.9833 270° West 260 299 5,900  Level Montreal Center
Mon 11:02:00 AM 45.5701 -74.2528 250° West  Level FlightAware Approximate
Mon 11:02:15 AM 45.4833 -74.1000 292° West 280 322 8,100  Level Montreal Center
Mon 11:03:00 AM 45.5253 -74.3805 243° Southwest  Level FlightAware Approximate
Mon 11:03:15 AM 45.4833 -74.2167 270° West 280 322 10,600  Level Montreal Center
Mon 11:04:00 AM 45.4957 -74.5139 259° West  Level FlightAware Approximate
Mon 11:04:15 AM 45.5000 -74.3167 283° West 280 322 12,400  Level Montreal Center
Mon 11:05:00 AM 45.4819 -74.6544 245° Southwest  Level FlightAware Approximate
Mon 11:05:15 AM 45.5000 -74.4333 270° West 310 357 13,700  Level Montreal Center
Mon 11:06:15 AM 45.4833 -74.5833 261° West 320 368 15,300 1,550 Climbing Montreal Center
Mon 11:07:15 AM 45.4667 -74.7000 259° West 320 368 16,800 1,400 Climbing Montreal Center
Mon 11:08:15 AM 45.4500 -74.8167 259° West 330 380 18,100 1,537 Climbing Montreal Center
Mon 11:09:16 AM 45.4333 -74.9667 261° West 330 380 19,900 1,686 Climbing Montreal Center
Mon 11:10:16 AM 45.4167 -75.0833 259° West 330 380 21,500 1,664 Climbing Montreal Center
Mon 11:11:15 AM 45.3833 -75.2000 248° West 330 380 23,200 1,664 Climbing Montreal Center
Mon 11:12:15 AM 45.3667 -75.3500 261° West 330 380 24,800 1,550 Climbing Montreal Center
Mon 11:13:15 AM 45.3500 -75.4667 259° West 330 380 26,300 1,450 Climbing Montreal Center
Mon 11:14:15 AM 45.3333 -75.5833 259° West 330 380 27,700 1,400 Climbing Montreal Center
Mon 11:15:15 AM 45.3167 -75.7333 261° West 340 391 29,100 1,388 Climbing Montreal Center
Mon 11:16:16 AM 45.3000 -75.8500 259° West 330 380 30,500 1,400 Climbing Montreal Center
Mon 11:17:15 AM 45.2667 -76.0000 253° West 330 380 31,900 756 Climbing Montreal Center
Mon 11:18:15 AM 45.2500 -76.1167 259° West 340 391 32,000 50 Climbing Montreal Center
Mon 11:19:15 AM 45.2167 -76.2500 251° West 370 426 32,000  Level Montreal Center
Mon 11:20:15 AM 45.1667 -76.4000 245° Southwest 400 460 32,000  Level Montreal Center
Mon 11:21:15 AM 45.1167 -76.5333 242° Southwest 410 472 32,000  Level Montreal Center
Mon 11:21:47 AM 45.0833 -76.5833 227° Southwest 410 472 32,000  Level Toronto Center
Mon 11:22:15 AM 45.0667 -76.6833 257° West 410 472 32,000  Level Montreal Center
Mon 11:23:15 AM 45.0000 -76.8167 235° Southwest 410 472 32,000  Level Montreal Center
Mon 11:24:15 AM 44.9500 -76.9833 247° West 420 483 32,000  Level Montreal Center
Mon 11:24:47 AM 44.9167 -77.0167 215° Southwest 420 483 32,000  Level Toronto Center
Mon 11:25:47 AM 44.8500 -77.1667 238° Southwest 420 483 32,000  Level Toronto Center
Mon 11:26:15 AM 44.8333 -77.2667 257° West 420 483 32,000  Level Montreal Center
Mon 11:27:15 AM 44.7833 -77.4000 242° Southwest 420 483 32,000  Level Montreal Center
Mon 11:28:15 AM 44.7167 -77.5500 238° Southwest 420 483 32,000  Level Montreal Center
Mon 11:29:15 AM 44.6667 -77.6833 242° Southwest 420 483 32,000  Level Montreal Center
Mon 11:29:47 AM 44.6333 -77.7333 227° Southwest 430 495 32,000  Level Toronto Center
Mon 11:30:15 AM 44.6000 -77.8333 245° Southwest 420 483 32,000  Level Montreal Center
Mon 11:30:47 AM 44.5667 -77.8833 227° Southwest 420 483 32,000  Level Toronto Center
Mon 11:31:47 AM 44.5000 -78.0167 235° Southwest 420 483 32,000  Level Toronto Center
Mon 11:32:47 AM 44.4500 -78.1667 245° Southwest 420 483 32,000  Level Toronto Center
Mon 11:33:47 AM 44.3833 -78.3000 235° Southwest 420 483 32,000  Level Toronto Center
Mon 11:34:15 AM 44.3667 -78.4000 257° West 420 483 32,000  Level Montreal Center
Mon 11:34:47 AM 44.3167 -78.4500 216° Southwest 420 483 32,000  Level Toronto Center
Mon 11:35:47 AM 44.2833 -78.5833 251° West 420 483 32,000  Level Toronto Center
Mon 11:36:47 AM 44.2167 -78.7333 238° Southwest 420 483 32,000  Level Toronto Center
Mon 11:37:47 AM 44.1500 -78.8667 235° Southwest 430 495 32,000  Level Toronto Center
Mon 11:38:47 AM 44.0833 -79.0333 241° Southwest 430 495 32,000  Level Toronto Center
Mon 11:39:47 AM 44.0333 -79.1500 239° Southwest 430 495 32,000  Level Toronto Center
Mon 11:40:47 AM 43.9667 -79.2833 235° Southwest 430 495 32,000  Level Toronto Center
Mon 11:41:47 AM 43.9000 -79.4167 235° Southwest 430 495 32,000  Level Toronto Center
Mon 11:42:47 AM 43.8333 -79.5667 238° Southwest 420 483 32,000 -150 Level Toronto Center
Mon 11:43:47 AM 43.7667 -79.7000 235° Southwest 430 495 31,700 -650 Descending Toronto Center
Mon 11:44:47 AM 43.6667 -79.8000 216° Southwest 430 495 30,700 -1,050 Descending Toronto Center
Mon 11:45:47 AM 43.5667 -79.9167 220° Southwest 430 495 29,600 -1,100 Descending Toronto Center
Mon 11:46:47 AM 43.4833 -80.0000 216° Southwest 430 495 28,500 -1,100 Descending Toronto Center
Mon 11:47:47 AM 43.3833 -80.1167 220° Southwest 430 495 27,400 -1,050 Descending Toronto Center
Mon 11:48:47 AM 43.3000 -80.2000 216° Southwest 420 483 26,400 -1,050 Descending Toronto Center
Mon 11:49:47 AM 43.2000 -80.3167 220° Southwest 420 483 25,300 -1,350 Descending Toronto Center
Mon 11:50:47 AM 43.1167 -80.4167 221° Southwest 430 495 23,700 -1,150 Descending Toronto Center
Mon 11:51:47 AM 43.0333 -80.5167 221° Southwest 440 506 23,000 -350 Descending Toronto Center
Mon 11:52:47 AM 42.9333 -80.6167 216° Southwest 420 483 23,000  Level Toronto Center
Mon 11:53:33 AM 42.8708 -80.7136 229° Southwest 412 474 23,000  Level Cleveland Center
Mon 11:54:33 AM 42.7831 -80.8039 217° Southwest 407 468 23,000  Level Cleveland Center
Mon 11:55:33 AM 42.7078 -80.9167 228° Southwest 401 461 23,000  Level Cleveland Center
Mon 11:56:33 AM 42.6864 -81.0633 259° West 384 442 23,000  Level Cleveland Center
Mon 11:57:33 AM 42.6711 -81.2100 262° West 397 457 23,000 -250 Level Cleveland Center
Mon 11:58:33 AM 42.6514 -81.3567 260° West 397 457 22,500 -750 Descending Cleveland Center
Mon 11:59:33 AM 42.6336 -81.5061 261° West 397 457 21,500 -1,000 Descending Cleveland Center
Mon 12:00:33 PM 42.6178 -81.6581 262° West 412 474 20,500 -950 Descending Cleveland Center
Mon 12:01:33 PM 42.5997 -81.7903 260° West 412 474 19,600 -1,100 Descending Cleveland Center
Mon 12:02:33 PM 42.5814 -81.9394 261° West 412 474 18,300 -1,250 Descending Cleveland Center
Mon 12:03:33 PM 42.5650 -82.0886 262° West 412 474 17,100 -1,300 Descending Cleveland Center
Mon 12:04:33 PM 42.5464 -82.2319 260° West 412 474 15,700 -1,554 Descending Cleveland Center
Mon 12:05:25 PM 42.5317 -82.3781 262° West 388 447 14,200 -1,850 Descending Cleveland Center
Mon 12:06:20 PM 42.5131 -82.5014 258° West 356 410 12,400 -1,328 Descending Cleveland Center
Mon 12:07:27 PM 42.4817 -82.6186 250° West 283 326 11,500 -1,083 Descending Cleveland Center
Mon 12:08:33 PM 42.4467 -82.7161 244° Southwest 309 356 10,000 -1,429 Descending Cleveland Center
Mon 12:09:33 PM 42.4197 -82.8108 249° West 286 329 8,500 -1,552 Descending Cleveland Center
Mon 12:10:29 PM 42.4094 -82.9144 262° West 262 302 7,000 -821 Descending Cleveland Center
Mon 12:11:30 PM 42.4139 -83.0075 274° West 232 267 6,900 -677 Descending Cleveland Center
Mon 12:12:33 PM 42.4206 -83.0836 277° West 241 277 5,600 -934 Descending Cleveland Center
Mon 12:13:32 PM 42.4353 -83.1742 282° West 222 255 5,000 -600 Descending Cleveland Center
Mon 12:14:33 PM 42.3822 -83.2142 209° Southwest 219 252 4,400 -590 Descending Cleveland Center

Login

Don't have an account? Register now (free) for customized features, flight alerts, and more!